createdAt,value
2022-11-25T00:01:07.307Z,100478.97
2022-11-25T00:03:35.952Z,100467.63
2022-11-25T00:06:13.899Z,100460.59
2022-11-25T00:08:44.350Z,100462.19
2022-11-25T00:11:11.902Z,100472.09
2022-11-25T00:13:42.864Z,100465.16
2022-11-25T00:16:14.284Z,100461.22
2022-11-25T00:18:43.675Z,100454.97
2022-11-25T00:21:13.026Z,100459.66
2022-11-25T00:23:39.514Z,100461.91
2022-11-25T00:26:18.396Z,100458.81
2022-11-25T00:28:49.953Z,100454.41
2022-11-25T00:31:19.349Z,100453.69
2022-11-25T00:33:48.382Z,100453.41
2022-11-25T00:36:23.688Z,100454.97
2022-11-25T00:38:59.287Z,100453.41
2022-11-25T00:41:45.666Z,100459.22
2022-11-25T00:44:32.866Z,100450.72
2022-11-25T00:47:00.231Z,100458.53
2022-11-25T00:49:27.077Z,100456.81
2022-11-25T00:51:53.729Z,100456.22
2022-11-25T00:54:22.483Z,100461.75
2022-11-25T00:56:53.751Z,100461.63
2022-11-25T00:59:20.319Z,100467.41
2022-11-25T01:01:50.302Z,100460.19
2022-11-25T01:04:17.180Z,100457.09
2022-11-25T01:06:44.277Z,100457.09
2022-11-25T01:09:12.210Z,100462.88
2022-11-25T01:11:38.896Z,100465.88
2022-11-25T01:14:05.458Z,100465.28
2022-11-25T01:16:32.607Z,100466.44
2022-11-25T01:19:03.566Z,100463.44
2022-11-25T01:21:32.323Z,100455.66
2022-11-25T01:24:01.172Z,100469.00
2022-11-25T01:26:28.366Z,100467.97
2022-11-25T01:29:00.359Z,100468.72
2022-11-25T01:31:29.567Z,100469.00
2022-11-25T01:33:59.690Z,100466.31
2022-11-25T01:36:27.016Z,100477.25
2022-11-25T01:38:58.537Z,100479.94
2022-11-25T01:41:27.552Z,100493.03
2022-11-25T01:44:05.963Z,100495.72
2022-11-25T01:46:44.521Z,100490.06
2022-11-25T01:49:17.741Z,100486.91
2022-11-25T01:51:55.633Z,100480.97
2022-11-25T01:54:28.235Z,100480.97
2022-11-25T01:57:02.247Z,100488.78
2022-11-25T01:59:35.302Z,100490.06
2022-11-25T02:02:01.838Z,100490.91
2022-11-25T02:04:33.542Z,100493.34
2022-11-25T02:07:07.475Z,100488.66
2022-11-25T02:09:38.513Z,100481.41
2022-11-25T02:12:05.903Z,100490.06
2022-11-25T02:14:34.687Z,100488.91
2022-11-25T02:17:03.925Z,100489.63
2022-11-25T02:19:47.149Z,100479.81
2022-11-25T02:22:23.777Z,100482.81
2022-11-25T02:24:57.381Z,100488.59
2022-11-25T02:27:23.799Z,100489.72
2022-11-25T02:29:52.091Z,100493.28
2022-11-25T02:32:22.908Z,100485.59
2022-11-25T02:34:49.909Z,100479.47
2022-11-25T02:37:19.234Z,100482.19
2022-11-25T02:39:48.556Z,100475.78
2022-11-25T02:42:17.578Z,100475.38
2022-11-25T02:44:46.076Z,100483.59
2022-11-25T02:47:12.493Z,100482.03
2022-11-25T02:49:38.863Z,100476.53
2022-11-25T02:52:05.267Z,100465.25
2022-11-25T02:54:31.735Z,100462.69
2022-11-25T02:56:58.257Z,100462.97
2022-11-25T02:59:24.677Z,100462.50
2022-11-25T03:01:51.248Z,100461.75
2022-11-25T03:04:17.681Z,100462.38
2022-11-25T03:06:44.057Z,100451.50
2022-11-25T03:09:10.508Z,100456.88
2022-11-25T03:11:55.367Z,100452.28
2022-11-25T03:14:21.811Z,100463.22
2022-11-25T03:16:48.442Z,100460.13
2022-11-25T03:19:14.804Z,100463.22
2022-11-25T03:21:43.733Z,100463.38
2022-11-25T03:24:10.070Z,100457.00
2022-11-25T03:26:36.463Z,100461.53
2022-11-25T03:29:02.876Z,100468.03
2022-11-25T03:31:29.395Z,100457.06
2022-11-25T03:33:56.148Z,100449.06
2022-11-25T03:36:22.522Z,100458.47
2022-11-25T03:38:48.921Z,100453.38
2022-11-25T03:41:15.282Z,100450.53
2022-11-25T03:43:44.303Z,100455.38
2022-11-25T03:46:10.793Z,100453.69
2022-11-25T03:48:37.215Z,100449.28
2022-11-25T03:51:03.654Z,100449.56
2022-11-25T03:53:30.215Z,100449.13
2022-11-25T03:55:56.614Z,100451.66
2022-11-25T03:58:23.038Z,100452.28
2022-11-25T04:00:49.551Z,100450.97
2022-11-25T04:03:15.921Z,100453.28
2022-11-25T04:05:42.395Z,100450.56
2022-11-25T04:08:08.858Z,100442.47
2022-11-25T04:10:35.336Z,100440.78
2022-11-25T04:13:04.323Z,100447.00
2022-11-25T04:15:30.872Z,100454.97
2022-11-25T04:17:59.405Z,100450.88
2022-11-25T04:20:25.888Z,100452.41
2022-11-25T04:22:52.250Z,100446.19
2022-11-25T04:25:18.671Z,100453.13
2022-11-25T04:27:45.470Z,100443.56
2022-11-25T04:30:12.353Z,100451.38
2022-11-25T04:32:39.153Z,100458.47
2022-11-25T04:35:08.430Z,100459.03
2022-11-25T04:37:37.249Z,100461.44
2022-11-25T04:40:04.019Z,100463.84
2022-11-25T04:42:36.915Z,100453.41
2022-11-25T04:45:25.401Z,100455.13
2022-11-25T04:47:52.144Z,100455.28
2022-11-25T04:50:22.320Z,100458.00
2022-11-25T04:52:48.825Z,100449.03
2022-11-25T04:55:22.809Z,100449.56
2022-11-25T04:57:49.165Z,100437.06
2022-11-25T05:00:18.488Z,100444.84
2022-11-25T05:02:44.976Z,100437.56
2022-11-25T05:05:12.263Z,100429.72
2022-11-25T05:07:38.890Z,100419.44
2022-11-25T05:10:06.748Z,100404.72
2022-11-25T05:12:33.165Z,100405.66
2022-11-25T05:14:59.642Z,100413.22
2022-11-25T05:17:28.423Z,100423.31
2022-11-25T05:19:55.028Z,100429.94
2022-11-25T05:22:24.916Z,100432.41
2022-11-25T05:24:51.856Z,100436.59
2022-11-25T05:27:19.269Z,100443.97
2022-11-25T05:29:45.776Z,100448.28
2022-11-25T05:32:12.747Z,100456.78
2022-11-25T05:34:41.998Z,100467.97
2022-11-25T05:37:09.871Z,100477.38
2022-11-25T05:39:36.317Z,100479.94
2022-11-25T05:42:06.296Z,100478.09
2022-11-25T05:44:32.627Z,100494.13
2022-11-25T05:46:59.010Z,100494.31
2022-11-25T05:49:25.363Z,100496.03
2022-11-25T05:51:54.062Z,100494.84
2022-11-25T05:54:20.427Z,100501.97
2022-11-25T05:56:46.869Z,100492.56
2022-11-25T05:59:13.397Z,100484.28
2022-11-25T06:01:39.885Z,100482.84
2022-11-25T06:04:06.324Z,100476.84
2022-11-25T06:06:37.666Z,100483.94
2022-11-25T06:09:04.118Z,100479.41
2022-11-25T06:11:32.916Z,100488.19
2022-11-25T06:13:59.435Z,100500.41
2022-11-25T06:16:26.281Z,100501.38
2022-11-25T06:18:52.746Z,100505.50
2022-11-25T06:21:19.153Z,100508.06
2022-11-25T06:23:46.131Z,100520.72
2022-11-25T06:26:20.633Z,100516.00
2022-11-25T06:28:47.243Z,100525.13
2022-11-25T06:31:20.276Z,100521.41
2022-11-25T06:33:48.573Z,100515.72
2022-11-25T06:36:18.292Z,100521.69
2022-11-25T06:38:54.594Z,100523.66
2022-11-25T06:41:22.380Z,100518.44
2022-11-25T06:43:48.774Z,100536.06
2022-11-25T06:46:23.099Z,100542.13
2022-11-25T06:48:51.915Z,100547.78
2022-11-25T06:51:18.581Z,100557.75
2022-11-25T06:53:45.795Z,100563.88
2022-11-25T06:56:15.653Z,100559.88
2022-11-25T06:58:43.503Z,100571.38
2022-11-25T07:01:16.502Z,100570.06
2022-11-25T07:03:44.753Z,100577.31
2022-11-25T07:06:12.821Z,100577.19
2022-11-25T07:08:39.979Z,100580.88
2022-11-25T07:11:11.718Z,100575.03
2022-11-25T07:13:38.395Z,100573.00
2022-11-25T07:16:08.106Z,100578.59
2022-11-25T07:18:36.638Z,100580.97
2022-11-25T07:21:09.331Z,100573.84
2022-11-25T07:23:37.094Z,100580.97
2022-11-25T07:26:14.775Z,100583.69
2022-11-25T07:28:41.764Z,100573.53
2022-11-25T07:31:24.852Z,100570.03
2022-11-25T07:33:57.962Z,100571.56
2022-11-25T07:36:25.759Z,100568.69
2022-11-25T07:38:52.473Z,100564.84
2022-11-25T07:41:21.854Z,100565.53
2022-11-25T07:43:54.266Z,100576.03
2022-11-25T07:46:27.421Z,100578.47
2022-11-25T07:48:56.147Z,100579.13
2022-11-25T07:51:28.245Z,100584.25
2022-11-25T07:53:56.328Z,100585.53
2022-11-25T07:56:23.350Z,100581.50
2022-11-25T07:58:49.828Z,100578.50
2022-11-25T08:01:18.433Z,100581.34
2022-11-25T08:03:46.879Z,100578.34
2022-11-25T08:06:15.853Z,100584.97
2022-11-25T08:08:43.383Z,100582.13
2022-11-25T08:11:17.138Z,100590.94
2022-11-25T08:13:49.813Z,100590.78
2022-11-25T08:16:19.300Z,100591.66
2022-11-25T08:18:46.545Z,100591.47
2022-11-25T08:21:15.484Z,100593.31
2022-11-25T08:23:47.496Z,100601.44
2022-11-25T08:26:22.702Z,100610.88
2022-11-25T08:28:49.638Z,100610.44
2022-11-25T08:31:19.967Z,100611.13
2022-11-25T08:33:47.310Z,100602.16
2022-11-25T08:36:15.405Z,100600.31
2022-11-25T08:38:42.684Z,100591.41
2022-11-25T08:41:11.767Z,100599.38
2022-11-25T08:43:41.557Z,100600.22
2022-11-25T08:46:10.951Z,100596.19
2022-11-25T08:48:37.824Z,100602.59
2022-11-25T08:51:10.454Z,100606.72
2022-11-25T08:53:38.616Z,100610.41
2022-11-25T08:56:06.093Z,100616.69
2022-11-25T08:58:33.335Z,100616.84
2022-11-25T09:00:59.688Z,100620.44
2022-11-25T09:03:26.281Z,100622.28
2022-11-25T09:05:54.687Z,100626.53
2022-11-25T09:08:23.621Z,100626.84
2022-11-25T09:10:51.198Z,100629.38
2022-11-25T09:13:17.679Z,100631.94
2022-11-25T09:15:44.176Z,100634.50
2022-11-25T09:18:11.130Z,100634.88
2022-11-25T09:20:39.737Z,100643.69
2022-11-25T09:23:08.373Z,100641.91
2022-11-25T09:25:36.108Z,100648.09
2022-11-25T09:28:05.641Z,100649.69
2022-11-25T09:30:32.288Z,100654.03
2022-11-25T09:32:58.864Z,100653.56
2022-11-25T09:35:25.930Z,100660.50
2022-11-25T09:37:52.470Z,100668.63
2022-11-25T09:40:39.636Z,100672.72
2022-11-25T09:43:58.653Z,100667.50
2022-11-25T09:46:52.468Z,100684.97
2022-11-25T09:49:21.699Z,100682.25
2022-11-25T09:52:09.189Z,100685.50
2022-11-25T09:54:59.131Z,100676.56
2022-11-25T09:57:39.563Z,100685.63
2022-11-25T10:00:19.591Z,100678.22
2022-11-25T10:03:09.888Z,100683.97
2022-11-25T10:05:47.229Z,100683.97
2022-11-25T10:08:22.886Z,100689.53
2022-11-25T10:10:58.776Z,100684.66
2022-11-25T10:13:34.188Z,100684.50
2022-11-25T10:16:07.033Z,100689.59
2022-11-25T10:18:50.155Z,100682.19
2022-11-25T10:21:18.874Z,100688.72
2022-11-25T10:23:47.767Z,100693.47
2022-11-25T10:26:17.408Z,100698.09
2022-11-25T10:28:57.149Z,100700.34
2022-11-25T10:31:31.180Z,100696.81
2022-11-25T10:34:01.377Z,100697.47
2022-11-25T10:36:33.459Z,100700.91
2022-11-25T10:39:14.871Z,100698.53
2022-11-25T10:41:59.489Z,100694.47
2022-11-25T10:44:28.787Z,100695.19
2022-11-25T10:47:32.433Z,100693.13
2022-11-25T10:50:03.820Z,100693.66
2022-11-25T10:52:37.521Z,100698.94
2022-11-25T10:55:20.690Z,100698.13
2022-11-25T10:57:47.210Z,100702.88
2022-11-25T11:00:35.682Z,100699.84
2022-11-25T11:03:24.479Z,100695.28
2022-11-25T11:05:52.704Z,100698.38
2022-11-25T11:08:25.321Z,100707.72
2022-11-25T11:11:09.209Z,100712.81
2022-11-25T11:13:35.723Z,100710.75
2022-11-25T11:16:02.321Z,100712.81
2022-11-25T11:18:37.593Z,100715.72
2022-11-25T11:21:07.245Z,100719.13
2022-11-25T11:23:51.752Z,100713.00
2022-11-25T11:26:24.980Z,100717.44
2022-11-25T11:29:12.725Z,100728.63
2022-11-25T11:31:51.655Z,100734.03
2022-11-25T11:34:36.788Z,100726.41
2022-11-25T11:37:21.837Z,100721.69
2022-11-25T11:40:16.280Z,100736.13
2022-11-25T11:42:45.650Z,100734.78
2022-11-25T11:45:24.271Z,100729.34
2022-11-25T11:48:01.114Z,100729.66
2022-11-25T11:50:38.084Z,100736.66
2022-11-25T11:53:30.417Z,100738.53
2022-11-25T11:59:06.702Z,100738.38
2022-11-25T12:01:51.441Z,100736.84
2022-11-25T12:04:42.196Z,100736.50
2022-11-25T12:07:12.088Z,100748.59
2022-11-25T12:09:53.896Z,100740.78
2022-11-25T12:12:27.883Z,100747.59
2022-11-25T12:15:04.280Z,100749.97
2022-11-25T12:17:36.906Z,100750.81
2022-11-25T12:20:10.389Z,100759.00
2022-11-25T12:22:46.597Z,100767.31
2022-11-25T12:25:31.723Z,100768.00
2022-11-25T12:28:21.174Z,100761.19
2022-11-25T12:31:06.032Z,100773.94
2022-11-25T12:33:54.260Z,100768.19
2022-11-25T12:36:31.029Z,100764.78
2022-11-25T12:39:02.245Z,100764.94
2022-11-25T12:41:43.654Z,100762.22
2022-11-25T12:44:31.412Z,100767.66
2022-11-25T12:46:58.770Z,100774.81
2022-11-25T12:49:31.844Z,100770.88
2022-11-25T12:52:10.332Z,100780.75
2022-11-25T12:54:51.847Z,100781.75
2022-11-25T12:57:50.445Z,100782.41
2022-11-25T13:03:39.922Z,100795.66
2022-11-25T13:06:16.334Z,100810.25
2022-11-25T13:08:48.578Z,100798.13
2022-11-25T13:11:26.945Z,100806.81
2022-11-25T13:14:12.756Z,100814.97
2022-11-25T13:16:40.784Z,100813.94
2022-11-25T13:19:16.200Z,100819.69
2022-11-25T13:22:20.659Z,100822.03
2022-11-25T13:24:47.451Z,100832.66
2022-11-25T13:27:40.230Z,100828.34
2022-11-25T13:30:32.577Z,100841.81
2022-11-25T13:33:11.398Z,100833.28
2022-11-25T13:35:49.361Z,100837.56
2022-11-25T13:38:30.867Z,100839.94
2022-11-25T13:41:20.160Z,100849.16
2022-11-25T13:44:01.740Z,100843.41
2022-11-25T13:46:42.245Z,100847.69
2022-11-25T13:49:30.617Z,100851.28
2022-11-25T13:52:26.370Z,100851.78
2022-11-25T13:54:55.479Z,100853.47
2022-11-25T13:57:27.908Z,100862.16
2022-11-25T13:59:56.139Z,100862.38
2022-11-25T14:02:31.098Z,100864.41
2022-11-25T14:05:04.374Z,100866.63
2022-11-25T14:07:40.832Z,100871.56
2022-11-25T14:10:31.247Z,100877.00
2022-11-25T14:13:19.317Z,100878.03
2022-11-25T14:16:03.741Z,100878.22
2022-11-25T14:22:23.135Z,100883.00
2022-11-25T14:24:53.389Z,100890.13
2022-11-25T14:27:22.450Z,100889.09
2022-11-25T14:30:06.371Z,100893.19
2022-11-25T14:32:47.670Z,100889.47
2022-11-25T14:35:16.190Z,100894.88
2022-11-25T14:37:52.026Z,100895.38
2022-11-25T14:41:00.129Z,100893.13
2022-11-25T14:43:29.144Z,100907.53
2022-11-25T14:46:15.363Z,100917.72
2022-11-25T14:48:43.685Z,100923.63
2022-11-25T14:51:18.518Z,100917.66
2022-11-25T14:53:48.427Z,100918.69
2022-11-25T14:56:21.475Z,100921.03
2022-11-25T14:58:51.599Z,100932.19
2022-11-25T15:01:23.186Z,100926.69
2022-11-25T15:03:52.018Z,100925.97
2022-11-25T15:06:22.252Z,100935.47
2022-11-25T15:08:59.404Z,100935.38
2022-11-25T15:11:31.558Z,100939.34
2022-11-25T15:14:03.742Z,100942.03
2022-11-25T15:16:37.026Z,100955.56
2022-11-25T15:19:06.432Z,100952.38
2022-11-25T15:21:53.750Z,100947.91
2022-11-25T15:24:48.873Z,100960.22
2022-11-25T15:27:25.172Z,100963.47
2022-11-25T15:29:53.538Z,100970.09
2022-11-25T15:32:22.711Z,100974.50
2022-11-25T15:34:50.624Z,100973.47
2022-11-25T15:37:17.154Z,100972.47
2022-11-25T15:39:44.063Z,100975.72
2022-11-25T15:42:21.572Z,100980.47
2022-11-25T15:44:54.659Z,100988.75
2022-11-25T15:47:24.711Z,100984.66
2022-11-25T15:50:25.629Z,100996.06
2022-11-25T15:52:56.886Z,101002.19
2022-11-25T15:55:38.685Z,101002.47
2022-11-25T15:58:21.209Z,101004.72
2022-11-25T16:01:07.493Z,101003.59
2022-11-25T16:03:35.562Z,101001.41
2022-11-25T16:06:02.740Z,100999.94
2022-11-25T16:08:36.367Z,101000.31
2022-11-25T16:11:18.250Z,100998.28
2022-11-25T16:13:46.482Z,100997.28
2022-11-25T16:16:24.160Z,100999.16
2022-11-25T16:19:02.802Z,100999.06
2022-11-25T16:21:38.704Z,101001.84
2022-11-25T16:24:08.183Z,101004.09
2022-11-25T16:26:50.242Z,101013.97
2022-11-25T16:29:19.073Z,101002.31
2022-11-25T16:31:45.822Z,101007.91
2022-11-25T16:34:17.954Z,101014.59
2022-11-25T16:36:44.781Z,101018.44
2022-11-25T16:39:11.635Z,101021.34
2022-11-25T16:41:41.032Z,101029.31
2022-11-25T16:44:21.162Z,101034.91
2022-11-25T16:46:47.657Z,101025.59
2022-11-25T16:49:20.218Z,101036.06
2022-11-25T16:51:46.769Z,101040.88
2022-11-25T16:54:16.222Z,101051.34
2022-11-25T16:56:43.597Z,101046.94
2022-11-25T16:59:19.271Z,101054.53
2022-11-25T17:01:48.927Z,101058.41
2022-11-25T17:04:16.522Z,101059.75
2022-11-25T17:06:50.542Z,101063.78
2022-11-25T17:09:32.270Z,101066.09
2022-11-25T17:12:03.394Z,101075.84
2022-11-25T17:14:35.782Z,101080.19
2022-11-25T17:17:04.997Z,101084.97
2022-11-25T17:19:31.809Z,101083.19
2022-11-25T17:21:58.468Z,101083.09
2022-11-25T17:24:25.464Z,101086.00
2022-11-25T17:27:04.979Z,101087.16
2022-11-25T17:29:41.862Z,101088.75
2022-11-25T17:32:12.701Z,101091.09
2022-11-25T17:34:39.744Z,101101.09
2022-11-25T17:37:24.029Z,101113.09
2022-11-25T17:39:55.745Z,101113.84
2022-11-25T17:42:28.581Z,101124.56
2022-11-25T17:44:55.269Z,101130.72
2022-11-25T17:47:21.859Z,101126.31
2022-11-25T17:49:49.526Z,101138.31
2022-11-25T17:52:16.143Z,101142.31
2022-11-25T17:54:42.770Z,101141.47
2022-11-25T17:57:19.822Z,101149.28
2022-11-25T17:59:48.740Z,101148.88
2022-11-25T18:02:20.980Z,101162.69
2022-11-25T18:04:47.761Z,101162.56
2022-11-25T18:07:16.654Z,101156.59
2022-11-25T18:09:44.451Z,101165.72
2022-11-25T18:12:18.504Z,101163.69
2022-11-25T18:14:46.232Z,101179.09
2022-11-25T18:17:16.612Z,101182.94
2022-11-25T18:19:52.905Z,101186.50
2022-11-25T18:22:21.549Z,101182.66
2022-11-25T18:24:48.200Z,101178.22
2022-11-25T18:27:24.899Z,101182.78
2022-11-25T18:29:52.299Z,101178.81
2022-11-25T18:32:19.600Z,101185.66
2022-11-25T18:34:48.456Z,101193.81
2022-11-25T18:37:14.943Z,101200.50
2022-11-25T18:39:41.971Z,101200.34
2022-11-25T18:42:20.928Z,101202.75
2022-11-25T18:44:48.217Z,101214.75
2022-11-25T18:47:14.686Z,101216.88
2022-11-25T18:49:41.085Z,101228.44
2022-11-25T18:52:07.518Z,101221.44
2022-11-25T18:54:35.239Z,101221.03
2022-11-25T18:57:04.880Z,101231.13
2022-11-25T18:59:37.206Z,101229.84
2022-11-25T19:02:03.649Z,101237.56
2022-11-25T19:04:30.475Z,101246.00
2022-11-25T19:06:56.837Z,101243.69
2022-11-25T19:09:23.188Z,101250.69
2022-11-25T19:11:52.355Z,101258.53
2022-11-25T19:14:32.934Z,101265.53
2022-11-25T19:17:06.468Z,101259.81
2022-11-25T19:19:33.234Z,101267.50
2022-11-25T19:22:01.379Z,101282.22
2022-11-25T19:24:30.691Z,101288.66
2022-11-25T19:26:57.583Z,101283.66
2022-11-25T19:29:32.255Z,101294.34
2022-11-25T19:32:01.927Z,101294.19
2022-11-25T19:34:43.925Z,101302.91
2022-11-25T19:37:20.340Z,101306.34
2022-11-25T19:39:51.254Z,101306.75
2022-11-25T19:42:17.911Z,101312.47
2022-11-25T19:44:48.160Z,101314.47
2022-11-25T19:47:25.757Z,101322.88
2022-11-25T19:50:02.727Z,101334.00
2022-11-25T19:52:34.960Z,101322.28
2022-11-25T19:55:25.570Z,101336.88
2022-11-25T19:57:54.819Z,101346.00
2022-11-25T20:00:23.546Z,101343.28
2022-11-25T20:02:55.987Z,101349.69
2022-11-25T20:05:29.426Z,101356.84
2022-11-25T20:07:55.841Z,101353.13
2022-11-25T20:10:32.083Z,101357.00
2022-11-25T20:12:59.553Z,101356.56
2022-11-25T20:15:26.801Z,101362.16
2022-11-25T20:18:01.947Z,101367.84
2022-11-25T20:20:34.916Z,101372.00
2022-11-25T20:23:20.147Z,101376.41
2022-11-25T20:25:48.762Z,101377.13
2022-11-25T20:28:25.034Z,101374.84
2022-11-25T20:30:53.000Z,101376.13
2022-11-25T20:33:24.337Z,101378.25
2022-11-25T20:35:54.629Z,101387.13
2022-11-25T20:38:27.247Z,101402.78
2022-11-25T20:40:58.708Z,101401.22
2022-11-25T20:43:38.653Z,101407.66
2022-11-25T20:46:11.929Z,101415.06
2022-11-25T20:48:38.542Z,101420.63
2022-11-25T20:51:12.892Z,101424.34
2022-11-25T20:53:43.720Z,101412.66
2022-11-25T20:56:14.678Z,101422.75
2022-11-25T20:58:45.693Z,101427.34
2022-11-25T21:01:14.419Z,101426.50
2022-11-25T21:03:42.566Z,101429.78
2022-11-25T21:06:30.222Z,101431.78
2022-11-25T21:08:58.886Z,101438.06
2022-11-25T21:11:28.224Z,101444.19
2022-11-25T21:13:55.110Z,101451.63
2022-11-25T21:16:21.741Z,101466.19
2022-11-25T21:18:48.175Z,101451.34
2022-11-25T21:21:18.216Z,101445.63
2022-11-25T21:23:47.035Z,101451.34
2022-11-25T21:26:24.832Z,101456.91
2022-11-25T21:28:53.001Z,101460.75
2022-11-25T21:31:24.697Z,101457.06
2022-11-25T21:33:57.784Z,101469.19
2022-11-25T21:36:29.078Z,101461.03
2022-11-25T21:39:19.558Z,101463.06
2022-11-25T21:41:46.017Z,101463.06
2022-11-25T21:44:24.147Z,101470.91
2022-11-25T21:46:52.317Z,101478.03
2022-11-25T21:49:18.788Z,101476.31
2022-11-25T21:51:45.530Z,101479.56
2022-11-25T21:54:14.476Z,101483.44
2022-11-25T21:56:40.966Z,101478.28
2022-11-25T21:59:08.176Z,101482.69
2022-11-25T22:01:34.585Z,101483.81
2022-11-25T22:04:03.477Z,101491.19
2022-11-25T22:06:31.830Z,101489.56
2022-11-25T22:08:58.277Z,101496.41
2022-11-25T22:11:30.593Z,101495.34
2022-11-25T22:13:57.132Z,101493.91
2022-11-25T22:16:32.729Z,101501.84
2022-11-25T22:18:59.933Z,101497.16
2022-11-25T22:21:26.476Z,101504.34
2022-11-25T22:23:52.891Z,101499.22
2022-11-25T22:26:33.982Z,101507.53
2022-11-25T22:29:02.272Z,101503.03
2022-11-25T22:31:31.378Z,101500.13
2022-11-25T22:33:57.889Z,101498.19
2022-11-25T22:36:30.344Z,101504.84
2022-11-25T22:38:58.305Z,101506.75
2022-11-25T22:41:24.992Z,101507.50
2022-11-25T22:43:52.549Z,101514.88
2022-11-25T22:46:19.366Z,101516.03
2022-11-25T22:48:46.471Z,101509.66
2022-11-25T22:51:17.295Z,101517.75
2022-11-25T22:53:43.780Z,101516.94
2022-11-25T22:56:17.994Z,101525.03
2022-11-25T22:58:44.946Z,101525.44
2022-11-25T23:01:19.477Z,101524.47
2022-11-25T23:03:51.888Z,101535.28
2022-11-25T23:06:18.286Z,101542.03
2022-11-25T23:08:44.679Z,101537.53
2022-11-25T23:11:17.800Z,101543.66
2022-11-25T23:13:48.645Z,101553.75
2022-11-25T23:16:15.770Z,101559.03
2022-11-25T23:18:45.876Z,101554.13
2022-11-25T23:21:29.004Z,101569.13
2022-11-25T23:23:58.217Z,101564.06
2022-11-25T23:26:28.826Z,101581.00
2022-11-25T23:28:58.622Z,101569.69
2022-11-25T23:31:27.577Z,101574.88
2022-11-25T23:33:54.024Z,101572.44
2022-11-25T23:36:42.228Z,101569.38
2022-11-25T23:39:17.796Z,101580.53
2022-11-25T23:41:44.365Z,101574.63
2022-11-25T23:44:17.424Z,101574.34
2022-11-25T23:46:44.657Z,101578.41
2022-11-25T23:49:27.894Z,101585.03
2022-11-25T23:52:04.637Z,101591.53
2022-11-25T23:54:42.425Z,101591.72
2022-11-25T23:57:32.804Z,101601.91
